Carnegie, PA (15106)

4:32 AM EST on February 20, 2018 (GMT -0500)
Rosslyn Farms, PA | | Change Station
Active Advisory: Flood Advisory Active Notice: Flood Advisory

Elev 1086 ft 40.41 °N, 80.08 °W | Updated 51 seconds ago

Clear
Clear
58.5 °F
Feels Like 58.5 °F
N
0.0
Wind Variable Wind from North
Gusts 0.0 mph

Today
High -- | Low -- °F
--% Chance of Precip.
Yesterday
High -- | Low -- °F
Precip. -- in
Pressure 30.17 in
Visibility 10.0 miles
Clouds Clear
Dew Point -30 °F
Humidity 2%
Rainfall 0.00 in
Snow Depth Not available.
7:07 AM 6:01 PM
Waxing Crescent, 20% visible
METAR KAGC 200853Z 20009KT 10SM CLR 15/09 A3016 RMK AO2 SLP216 T01500094 53004
Pressure 30.17 in
Visibility 10.0 miles
Clouds Clear
Dew Point -30 °F
Humidity 2%
Rainfall 0.00 in
Snow Depth Not available.
7:07 AM 6:01 PM
Waxing Crescent, 20% visible
METAR KAGC 200853Z 20009KT 10SM CLR 15/09 A3016 RMK AO2 SLP216 T01500094 53004

Get Your Daily Forecast Email!

Thanks for signing up!

Be on the lookout for a verification email in your inbox.

You'll start receiving severe weather alerts in your inbox..

×

10-Day Weather Forecast

Almanac

Astronomy

Feb. 20, 2018 Rise Set
Actual Time
Civil Twilight
Nautical Twilight
Astronomical Twilight
Moon
Length of Visible Light
Length of Day
Tomorrow will be .
, % of the Moon is Illuminated

Today's Extremes

State Highs State Lows

Community

WunderPhotos

Category 6

Welcome to Category 6. This is the collective home for Weather Underground's featured writeups by Dr. Jeff Masters (right), Bob Henson (left), Chris Burt, and other regular contributors.

Nearby

Air Quality

  Air Quality AQ Index Pollutant
Not available.

Snow Depth

Station Depth Elevation

Earthquake Activity

City Distance Mag. Time & Date
Minimum magnitude displayed is 2.5.

Coastal Water Temperatures

Place Temperature

Stations

Nearby Weather Stations

Station Location Temp. Windchill Dew Point Humidity Wind Precip. Elev Updated Type
                   

Watches & Warnings

Flood Advisory
Issued: 9:03 PM EST Feb. 19, 2018 – National Weather Service

The flood advisory continues for
the Ohio River at Pittsburgh.
* Until Friday afternoon.
* At 08pm Monday the stage was 20.4 feet.
* Flood stage is 25.0 feet.
* Forecast... the river will rise to near 20.7 feet tomorrow morning.
* Impact... at 20.0 feet, water is up to one foot deep in the lower
areas of the North Shore riverwalk.


Lat... Lon 4043 7999 4045 8005 4047 8003 4045 8001
      4046 7999 4045 7998